Seekonk, MA

7:30 AM EST on March 02, 2015 (GMT -0500)
Seekonk River | Change Station
CLOSE
Current Station
Personal Weather Station
Location: Providence, RI
Elevation: 0 ft
Nearby Weather Stations
Active Advisory: Special Statement Active Notice: Public Information Statement

Elev 0 ft 41.83 °N, 71.38 °W | Updated 40 seconds ago

Overcast
Overcast
29.5 °F
Feels Like 24 °F
N
4.9
Wind Variable Wind from South
Gusts 5.0 mph

Today
High -- | Low -- °F
--% Chance of Precip.
Yesterday
High -- | Low -- °F
Precip. -- in
6:19 AM 5:36 PM
Waxing Gibbous, 91% visible
Pressure 29.96 in
Visibility 8.0 miles
Clouds Mostly Cloudy 8500 ft
Mostly Cloudy 20000 ft
Windchill 24 °F
Dew Point 27 °F
Humidity 89%
Rainfall 0.00 in
Snow Depth Not available.
UV 0 out of 12
Pollen .40 out of 12
Air Quality Not available.
Flu Activity Not available.
METAR KPVD 021151Z 22006KT 8SM BKN085 BKN200 M03/M05 A2996 RMK AO2 SLP144 4/018 60000 70042 T10281050 11017 21028 58012

More Conditions Fewer Conditions

Pressure 29.96 in
Visibility 8.0 miles
Clouds Mostly Cloudy 8500 ft
Mostly Cloudy 20000 ft
Windchill 24 °F
Dew Point 27 °F
Humidity 89%
Rainfall 0.00 in
Snow Depth Not available.
UV 0 out of 12
Pollen .40 out of 12
Air Quality Not available.
Flu Activity Not available.
METAR KPVD 021151Z 22006KT 8SM BKN085 BKN200 M03/M05 A2996 RMK AO2 SLP144 4/018 60000 70042 T10281050 11017 21028 58012

More Conditions Fewer Conditions

10-Day Weather Forecast

Almanac

Astronomy

Mar. 02, 2015 Rise Set
Actual Time
Civil Twilight
Nautical Twilight
Astronomical Twilight
Moon
Length of Visible Light
Length of Day
Tomorrow will be .
, % of the Moon is Illuminated

Today's Extremes

State Highs State Lows

Community

WunderPhotos

Upload Photos

1,801,772 photos uploaded!

WunderBlogs® & News

Nearby

Air Quality

  Air Quality AQ Index Pollutant
Not available.

Snow Depth

Station Depth Elevation

Earthquake Activity

City Distance Mag. Time & Date
Minimum magnitude displayed is 2.5.

Coastal Water Temperatures

Place Temperature

Nearby Weather Stations

Special Statement
Statement as of 2:03 AM EST on March 02, 2015

... The snow has ended but with temperatures below freezing
untreated roads will remain snow covered and slippery for the
morning rush hour...

Even though the snow has come to an end... temperatures are below
freezing. Therefore... untreated roads will remain snow covered and
slippery for the morning rush hour. Motorists should drive with
extra caution if traveling early this morning.


Frank


203 am EST Mon Mar 2 2015

... The snow has ended but with temperatures below freezing
untreated roads will remain snow covered and slippery for the
morning rush hour...

Even though the snow has come to an end... temperatures are below
freezing. Therefore... untreated roads will remain snow covered and
slippery for the morning rush hour. Motorists should drive with
extra caution if traveling early this morning.


Frank